Terminal Aerodrome Forecast
Issued by NWS

Home | Current Version | Previous Version | Text Only | Print | Product List | Glossary On
Versions: 1 2 3 4 5 6 7 8 9 10 11 12 13 14 15 16 17 18 19 20 21 22 23 24 25 26
000
FTUS44 KOUN 260520
TAFHBR
TAF
KHBR 260520Z 2606/2706 18008KT P6SM SCT080
     FM261800 17012KT P6SM BKN030
      TEMPO 2621/2701 5SM -TSRA OVC020CB
     FM270100 16012KT P6SM BKN030
      TEMPO 2701/2704 6SM -SHRA OVC020=

USA.gov is the U.S. government's official web portal to all federal, state and local government web resources and services.